PPG weather

Pago Pago International Airport
Pago Pago, American Samoa

Public forecast

Using degrees Celsius for public forecast. Weather courtesy of forecast.io.

METAR (pilot weather report)

Retrieved 2019/03/26 12:51 UTC (1 hour ago):

NSTU 261251Z 08014KT 5SM -SHRA SCT015TCU BKN037 OVC090 27/25 A2978 RMK TCU ALQDS SLP086 T02670249

TAF (pilot weather forecast)

Retrieved 2019/03/26 12:25 UTC (1 hour ago):

TAF NSTU 261120Z 2612/2712 13011KT P6SM VCSH SCT015 BKN035 OVC100 FM261500 VRB06KT P6SM VCSH FEW018 SCT035 OVC080